sensor_id;sensor_type;location;lat;lon;timestamp;pressure;altitude;pressure_sealevel;temperature;humidity
54122;BME280;40029;58.708;50.190;2024-03-23T00:54:13;99086.38;;;0.64;52.82
54122;BME280;40029;58.708;50.190;2024-03-23T00:56:44;99088.09;;;0.68;53.12
54122;BME280;40029;58.708;50.190;2024-03-23T00:59:34;99075.09;;;0.65;53.01
54122;BME280;40029;58.708;50.190;2024-03-23T01:02:05;99077.75;;;0.61;53.73
54122;BME280;40029;58.708;50.190;2024-03-23T01:04:36;99075.22;;;0.57;53.99
54122;BME280;40029;58.708;50.190;2024-03-23T01:07:07;99073.47;;;0.58;53.76
54122;BME280;40029;58.708;50.190;2024-03-23T01:09:38;99064.84;;;0.53;53.92
54122;BME280;40029;58.708;50.190;2024-03-23T01:12:09;99065.75;;;0.52;53.83
54122;BME280;40029;58.708;50.190;2024-03-23T01:14:41;99064.91;;;0.48;53.67
54122;BME280;40029;58.708;50.190;2024-03-23T01:17:12;99057.16;;;0.44;54.45
54122;BME280;40029;58.708;50.190;2024-03-23T01:19:43;99053.69;;;0.45;54.09
54122;BME280;40029;58.708;50.190;2024-03-23T01:22:14;99052.03;;;0.39;54.44
54122;BME280;40029;58.708;50.190;2024-03-23T01:24:46;99048.53;;;0.38;54.68
54122;BME280;40029;58.708;50.190;2024-03-23T01:27:17;99044.22;;;0.39;54.23
54122;BME280;40029;58.708;50.190;2024-03-23T01:29:49;99042.47;;;0.40;54.50
54122;BME280;40029;58.708;50.190;2024-03-23T01:32:20;99043.41;;;0.35;54.90
54122;BME280;40029;58.708;50.190;2024-03-23T01:34:51;99033.88;;;0.33;54.70
54122;BME280;40029;58.708;50.190;2024-03-23T01:37:22;99036.47;;;0.34;54.87
54122;BME280;40029;58.708;50.190;2024-03-23T01:39:53;99027.91;;;0.26;55.38
54122;BME280;40029;58.708;50.190;2024-03-23T01:42:25;99036.56;;;0.28;55.62
54122;BME280;40029;58.708;50.190;2024-03-23T01:44:56;99038.34;;;0.23;56.24
54122;BME280;40029;58.708;50.190;2024-03-23T01:47:27;99032.22;;;0.27;56.02
54122;BME280;40029;58.708;50.190;2024-03-23T01:49:58;99032.28;;;0.24;56.13
54122;BME280;40029;58.708;50.190;2024-03-23T01:52:29;99027.00;;;0.29;55.74
54122;BME280;40029;58.708;50.190;2024-03-23T01:55:01;99023.56;;;0.27;56.40
54122;BME280;40029;58.708;50.190;2024-03-23T01:57:34;99021.88;;;0.23;56.79
54122;BME280;40029;58.708;50.190;2024-03-23T02:00:05;99017.59;;;0.18;56.91
54122;BME280;40029;58.708;50.190;2024-03-23T02:02:44;99013.19;;;0.22;56.79
54122;BME280;40029;58.708;50.190;2024-03-23T02:05:33;99015.81;;;0.22;57.14
54122;BME280;40029;58.708;50.190;2024-03-23T02:08:04;99020.13;;;0.25;56.56
54122;BME280;40029;58.708;50.190;2024-03-23T02:10:54;99021.00;;;0.22;57.09
54122;BME280;40029;58.708;50.190;2024-03-23T02:13:44;99012.31;;;0.26;57.45
54122;BME280;40029;58.708;50.190;2024-03-23T02:16:34;99013.19;;;0.24;57.70
54122;BME280;40029;58.708;50.190;2024-03-23T02:19:23;99007.22;;;0.17;58.11
54122;BME280;40029;58.708;50.190;2024-03-23T02:21:55;99007.16;;;0.20;57.84
54122;BME280;40029;58.708;50.190;2024-03-23T02:24:26;99005.50;;;0.13;58.86
54122;BME280;40029;58.708;50.190;2024-03-23T02:26:57;99000.28;;;0.16;58.82
54122;BME280;40029;58.708;50.190;2024-03-23T02:29:29;98995.13;;;0.13;59.04
54122;BME280;40029;58.708;50.190;2024-03-23T02:32:00;98998.63;;;0.09;59.54
54122;BME280;40029;58.708;50.190;2024-03-23T02:34:32;98991.84;;;-0.02;59.70
54122;BME280;40029;58.708;50.190;2024-03-23T02:37:22;98992.72;;;-0.04;59.69
54122;BME280;40029;58.708;50.190;2024-03-23T02:39:53;98985.03;;;-0.12;59.96
54122;BME280;40029;58.708;50.190;2024-03-23T02:42:24;98985.09;;;-0.18;60.43
54122;BME280;40029;58.708;50.190;2024-03-23T02:44:55;98979.84;;;-0.15;59.85
54122;BME280;40029;58.708;50.190;2024-03-23T02:47:26;98982.50;;;-0.20;60.98
54122;BME280;40029;58.708;50.190;2024-03-23T02:49:58;98979.00;;;-0.15;60.42
54122;BME280;40029;58.708;50.190;2024-03-23T02:52:30;98983.34;;;-0.16;60.65
54122;BME280;40029;58.708;50.190;2024-03-23T02:55:02;98975.66;;;-0.25;61.20
54122;BME280;40029;58.708;50.190;2024-03-23T02:57:34;98977.59;;;-0.44;61.98
54122;BME280;40029;58.708;50.190;2024-03-23T03:00:06;98977.59;;;-0.44;61.23
54122;BME280;40029;58.708;50.190;2024-03-23T03:02:38;98972.50;;;-0.56;62.19
54122;BME280;40029;58.708;50.190;2024-03-23T03:05:09;98967.31;;;-0.56;62.36
54122;BME280;40029;58.708;50.190;2024-03-23T03:07:41;98965.50;;;-0.48;61.74
54122;BME280;40029;58.708;50.190;2024-03-23T03:10:13;98965.47;;;-0.45;62.28
54122;BME280;40029;58.708;50.190;2024-03-23T03:12:44;98957.63;;;-0.41;62.48
54122;BME280;40029;58.708;50.190;2024-03-23T03:15:15;98955.94;;;-0.45;62.80
54122;BME280;40029;58.708;50.190;2024-03-23T03:17:46;98956.72;;;-0.36;62.60
54122;BME280;40029;58.708;50.190;2024-03-23T03:20:39;98964.38;;;-0.24;62.07
54122;BME280;40029;58.708;50.190;2024-03-23T03:23:11;98953.91;;;-0.18;62.61
54122;BME280;40029;58.708;50.190;2024-03-23T03:26:00;98946.16;;;-0.21;62.26
54122;BME280;40029;58.708;50.190;2024-03-23T03:28:32;98953.97;;;-0.24;62.06
54122;BME280;40029;58.708;50.190;2024-03-23T03:31:05;98957.44;;;-0.22;62.71
54122;BME280;40029;58.708;50.190;2024-03-23T03:33:36;98955.72;;;-0.26;62.74
54122;BME280;40029;58.708;50.190;2024-03-23T03:36:08;98953.13;;;-0.25;62.30
54122;BME280;40029;58.708;50.190;2024-03-23T03:38:39;98948.75;;;-0.21;62.39
54122;BME280;40029;58.708;50.190;2024-03-23T03:41:28;98945.22;;;-0.17;62.50
54122;BME280;40029;58.708;50.190;2024-03-23T03:43:59;98945.19;;;-0.12;62.37
54122;BME280;40029;58.708;50.190;2024-03-23T03:46:33;98948.63;;;-0.12;62.82
54122;BME280;40029;58.708;50.190;2024-03-23T03:49:23;98948.50;;;0.01;62.79
54122;BME280;40029;58.708;50.190;2024-03-23T03:51:54;98934.66;;;-0.02;62.62
54122;BME280;40029;58.708;50.190;2024-03-23T03:54:25;98930.19;;;0.10;62.52
54122;BME280;40029;58.708;50.190;2024-03-23T03:56:56;98922.16;;;0.25;62.44
54122;BME280;40029;58.708;50.190;2024-03-23T03:59:46;98915.16;;;0.30;61.91
54122;BME280;40029;58.708;50.190;2024-03-23T04:02:17;98908.91;;;0.44;62.06
54122;BME280;40029;58.708;50.190;2024-03-23T04:04:48;98914.94;;;0.44;61.67
54122;BME280;40029;58.708;50.190;2024-03-23T04:07:19;98904.66;;;0.36;61.18
54122;BME280;40029;58.708;50.190;2024-03-23T04:09:53;98911.53;;;0.41;61.57
54122;BME280;40029;58.708;50.190;2024-03-23T04:12:24;98897.63;;;0.45;61.93
54122;BME280;40029;58.708;50.190;2024-03-23T04:14:55;98887.16;;;0.48;62.17
54122;BME280;40029;58.708;50.190;2024-03-23T04:17:27;98888.91;;;0.46;62.12
54122;BME280;40029;58.708;50.190;2024-03-23T04:20:03;98890.59;;;0.50;61.31
54122;BME280;40029;58.708;50.190;2024-03-23T04:22:40;98881.13;;;0.46;61.95
54122;BME280;40029;58.708;50.190;2024-03-23T04:25:12;98877.63;;;0.48;61.06
54122;BME280;40029;58.708;50.190;2024-03-23T04:27:43;98874.72;;;0.68;60.88
54122;BME280;40029;58.708;50.190;2024-03-23T04:30:15;98877.25;;;0.71;61.28
54122;BME280;40029;58.708;50.190;2024-03-23T04:32:47;98874.63;;;0.73;61.12
54122;BME280;40029;58.708;50.190;2024-03-23T04:35:19;98870.03;;;0.89;60.45
54122;BME280;40029;58.708;50.190;2024-03-23T04:37:53;98877.72;;;0.95;60.35
54122;BME280;40029;58.708;50.190;2024-03-23T04:40:25;98870.69;;;1.00;59.71
54122;BME280;40029;58.708;50.190;2024-03-23T04:42:57;98861.97;;;1.01;60.17
54122;BME280;40029;58.708;50.190;2024-03-23T04:45:28;98854.94;;;1.06;60.13
54122;BME280;40029;58.708;50.190;2024-03-23T04:47:59;98862.81;;;1.03;60.45
54122;BME280;40029;58.708;50.190;2024-03-23T04:50:49;98857.88;;;0.89;60.14
54122;BME280;40029;58.708;50.190;2024-03-23T04:53:39;98857.19;;;1.26;59.48
54122;BME280;40029;58.708;50.190;2024-03-23T04:56:11;98853.00;;;1.18;59.77
54122;BME280;40029;58.708;50.190;2024-03-23T04:58:42;98848.53;;;1.26;59.13
54122;BME280;40029;58.708;50.190;2024-03-23T05:01:14;98836.16;;;1.35;58.75
54122;BME280;40029;58.708;50.190;2024-03-23T05:03:45;98848.41;;;1.32;58.38
54122;BME280;40029;58.708;50.190;2024-03-23T05:06:17;98842.66;;;1.58;57.93
54122;BME280;40029;58.708;50.190;2024-03-23T05:08:48;98834.16;;;1.50;57.79
54122;BME280;40029;58.708;50.190;2024-03-23T05:11:20;98835.97;;;1.46;58.46
54122;BME280;40029;58.708;50.190;2024-03-23T05:13:51;98831.53;;;1.51;58.24
54122;BME280;40029;58.708;50.190;2024-03-23T05:16:22;98833.19;;;1.56;57.78
54122;BME280;40029;58.708;50.190;2024-03-23T05:18:54;98832.84;;;1.71;57.76
54122;BME280;40029;58.708;50.190;2024-03-23T05:21:25;98819.97;;;1.63;58.33
54122;BME280;40029;58.708;50.190;2024-03-23T05:23:56;98820.16;;;1.54;58.05
54122;BME280;40029;58.708;50.190;2024-03-23T05:26:27;98820.03;;;1.60;57.88
54122;BME280;40029;58.708;50.190;2024-03-23T05:28:58;98804.94;;;1.76;57.28
54122;BME280;40029;58.708;50.190;2024-03-23T05:31:30;98804.16;;;1.71;57.07
54122;BME280;40029;58.708;50.190;2024-03-23T05:34:20;98797.53;;;1.56;56.73
54122;BME280;40029;58.708;50.190;2024-03-23T05:36:51;98800.59;;;1.75;57.23
54122;BME280;40029;58.708;50.190;2024-03-23T05:39:23;98791.56;;;1.90;55.87
54122;BME280;40029;58.708;50.190;2024-03-23T05:41:54;98789.25;;;1.79;55.83
54122;BME280;40029;58.708;50.190;2024-03-23T05:44:26;98787.72;;;2.06;54.81
54122;BME280;40029;58.708;50.190;2024-03-23T05:46:57;98782.69;;;1.99;55.21
54122;BME280;40029;58.708;50.190;2024-03-23T05:49:28;98783.41;;;2.07;54.88
54122;BME280;40029;58.708;50.190;2024-03-23T05:51:59;98779.00;;;2.09;54.86
54122;BME280;40029;58.708;50.190;2024-03-23T05:54:33;98782.31;;;2.51;54.06
54122;BME280;40029;58.708;50.190;2024-03-23T05:57:22;98779.06;;;2.76;53.31
54122;BME280;40029;58.708;50.190;2024-03-23T05:59:54;98775.56;;;2.77;53.76
54122;BME280;40029;58.708;50.190;2024-03-23T06:02:25;98774.78;;;2.74;53.17
54122;BME280;40029;58.708;50.190;2024-03-23T06:04:56;98767.53;;;2.85;52.01
54122;BME280;40029;58.708;50.190;2024-03-23T06:07:28;98766.50;;;2.56;52.39
54122;BME280;40029;58.708;50.190;2024-03-23T06:09:59;98766.78;;;2.80;52.38
54122;BME280;40029;58.708;50.190;2024-03-23T06:12:30;98757.00;;;3.19;51.22
54122;BME280;40029;58.708;50.190;2024-03-23T06:15:01;98767.72;;;3.10;50.58
54122;BME280;40029;58.708;50.190;2024-03-23T06:17:36;98755.75;;;3.01;51.22
54122;BME280;40029;58.708;50.190;2024-03-23T06:20:08;98761.97;;;3.28;51.36
54122;BME280;40029;58.708;50.190;2024-03-23T06:22:39;98762.13;;;3.22;50.39
54122;BME280;40029;58.708;50.190;2024-03-23T06:25:29;98756.81;;;3.25;49.85
54122;BME280;40029;58.708;50.190;2024-03-23T06:28:00;98754.97;;;3.29;49.92
54122;BME280;40029;58.708;50.190;2024-03-23T06:30:34;98744.88;;;3.46;50.24
54122;BME280;40029;58.708;50.190;2024-03-23T06:33:05;98740.31;;;3.25;50.43
54122;BME280;40029;58.708;50.190;2024-03-23T06:35:36;98729.75;;;3.28;50.39
54122;BME280;40029;58.708;50.190;2024-03-23T06:38:07;98738.06;;;3.11;50.55
54122;BME280;40029;58.708;50.190;2024-03-23T06:40:38;98738.25;;;3.05;49.71
54122;BME280;40029;58.708;50.190;2024-03-23T06:43:09;98735.38;;;3.14;50.21
54122;BME280;40029;58.708;50.190;2024-03-23T06:45:41;98721.63;;;3.37;49.49
54122;BME280;40029;58.708;50.190;2024-03-23T06:48:12;98724.19;;;3.68;49.30
54122;BME280;40029;58.708;50.190;2024-03-23T06:50:43;98727.84;;;3.33;49.42
54122;BME280;40029;58.708;50.190;2024-03-23T06:53:14;98711.44;;;3.58;48.58
54122;BME280;40029;58.708;50.190;2024-03-23T06:55:50;98715.53;;;3.38;49.40
54122;BME280;40029;58.708;50.190;2024-03-23T06:58:24;98715.03;;;3.54;48.18
54122;BME280;40029;58.708;50.190;2024-03-23T07:00:55;98713.63;;;3.43;48.52
54122;BME280;40029;58.708;50.190;2024-03-23T07:03:27;98703.66;;;3.84;46.85
54122;BME280;40029;58.708;50.190;2024-03-23T07:05:58;98701.44;;;3.71;47.32
54122;BME280;40029;58.708;50.190;2024-03-23T07:08:30;98698.53;;;4.08;46.81
54122;BME280;40029;58.708;50.190;2024-03-23T07:11:21;98697.59;;;4.09;46.91
54122;BME280;40029;58.708;50.190;2024-03-23T07:13:53;98693.69;;;4.22;46.72
54122;BME280;40029;58.708;50.190;2024-03-23T07:16:27;98694.66;;;3.93;46.13
54122;BME280;40029;58.708;50.190;2024-03-23T07:18:58;98689.31;;;3.96;46.18
54122;BME280;40029;58.708;50.190;2024-03-23T07:21:29;98672.47;;;4.05;45.84
54122;BME280;40029;58.708;50.190;2024-03-23T07:24:01;98669.44;;;4.17;45.51
54122;BME280;40029;58.708;50.190;2024-03-23T07:26:32;98680.00;;;4.14;45.26
54122;BME280;40029;58.708;50.190;2024-03-23T07:29:21;98677.88;;;4.25;44.62
54122;BME280;40029;58.708;50.190;2024-03-23T07:31:53;98666.63;;;4.49;44.71
54122;BME280;40029;58.708;50.190;2024-03-23T07:34:25;98669.22;;;4.23;44.37
54122;BME280;40029;58.708;50.190;2024-03-23T07:37:15;98661.09;;;4.06;43.41
54122;BME280;40029;58.708;50.190;2024-03-23T07:40:05;98662.19;;;4.25;43.80
54122;BME280;40029;58.708;50.190;2024-03-23T07:42:37;98640.03;;;4.09;43.75
54122;BME280;40029;58.708;50.190;2024-03-23T07:45:26;98650.75;;;4.53;43.71
54122;BME280;40029;58.708;50.190;2024-03-23T07:48:16;98646.38;;;4.77;42.73
54122;BME280;40029;58.708;50.190;2024-03-23T07:50:47;98641.22;;;4.76;42.36
54122;BME280;40029;58.708;50.190;2024-03-23T07:53:27;98640.59;;;4.69;43.29
54122;BME280;40029;58.708;50.190;2024-03-23T07:56:05;98635.44;;;4.66;42.38
54122;BME280;40029;58.708;50.190;2024-03-23T07:58:36;98629.25;;;4.92;42.46
54122;BME280;40029;58.708;50.190;2024-03-23T08:01:10;98633.47;;;4.96;42.52
54122;BME280;40029;58.708;50.190;2024-03-23T08:03:45;98638.25;;;5.09;42.62
54122;BME280;40029;58.708;50.190;2024-03-23T08:06:18;98633.13;;;5.06;42.72
54122;BME280;40029;58.708;50.190;2024-03-23T08:08:56;98632.16;;;5.08;42.36
54122;BME280;40029;58.708;50.190;2024-03-23T08:11:32;98630.56;;;4.32;44.86
54122;BME280;40029;58.708;50.190;2024-03-23T08:14:23;98626.50;;;4.72;44.35
54122;BME280;40029;58.708;50.190;2024-03-23T08:16:54;98619.59;;;4.71;43.81
54122;BME280;40029;58.708;50.190;2024-03-23T08:19:26;98620.59;;;4.67;44.00
54122;BME280;40029;58.708;50.190;2024-03-23T08:21:57;98618.09;;;4.63;44.40
54122;BME280;40029;58.708;50.190;2024-03-23T08:24:28;98610.81;;;4.95;43.59
54122;BME280;40029;58.708;50.190;2024-03-23T08:27:19;98598.16;;;5.07;43.62
54122;BME280;40029;58.708;50.190;2024-03-23T08:29:50;98591.88;;;4.65;44.55
54122;BME280;40029;58.708;50.190;2024-03-23T08:32:21;98598.16;;;4.83;44.49
54122;BME280;40029;58.708;50.190;2024-03-23T08:34:52;98601.41;;;5.13;43.48
54122;BME280;40029;58.708;50.190;2024-03-23T08:37:24;98591.50;;;5.20;43.99
54122;BME280;40029;58.708;50.190;2024-03-23T08:39:56;98594.13;;;5.20;44.24
54122;BME280;40029;58.708;50.190;2024-03-23T08:42:27;98576.09;;;5.34;44.27
54122;BME280;40029;58.708;50.190;2024-03-23T08:44:58;98571.00;;;5.31;43.10
54122;BME280;40029;58.708;50.190;2024-03-23T08:47:29;98573.78;;;5.27;43.47
54122;BME280;40029;58.708;50.190;2024-03-23T08:50:00;98572.69;;;5.10;44.28
54122;BME280;40029;58.708;50.190;2024-03-23T08:52:51;98576.25;;;5.31;43.20
54122;BME280;40029;58.708;50.190;2024-03-23T08:55:22;98568.91;;;5.39;43.37
54122;BME280;40029;58.708;50.190;2024-03-23T08:57:53;98573.66;;;5.30;43.24
54122;BME280;40029;58.708;50.190;2024-03-23T09:00:24;98559.13;;;5.65;42.87
54122;BME280;40029;58.708;50.190;2024-03-23T09:02:55;98572.31;;;5.41;41.89
54122;BME280;40029;58.708;50.190;2024-03-23T09:05:27;98569.16;;;5.55;41.83
54122;BME280;40029;58.708;50.190;2024-03-23T09:07:59;98566.31;;;5.60;40.37
54122;BME280;40029;58.708;50.190;2024-03-23T09:10:30;98566.63;;;5.95;39.56
54122;BME280;40029;58.708;50.190;2024-03-23T09:13:02;98567.19;;;6.03;40.54
54122;BME280;40029;58.708;50.190;2024-03-23T09:15:45;98562.72;;;6.05;38.46
54122;BME280;40029;58.708;50.190;2024-03-23T09:18:16;98560.22;;;6.23;37.65
54122;BME280;40029;58.708;50.190;2024-03-23T09:20:48;98557.72;;;6.40;36.64
54122;BME280;40029;58.708;50.190;2024-03-23T09:23:22;98549.44;;;6.49;35.72
54122;BME280;40029;58.708;50.190;2024-03-23T09:25:53;98557.59;;;6.02;35.55
54122;BME280;40029;58.708;50.190;2024-03-23T09:28:24;98551.03;;;6.33;35.23
54122;BME280;40029;58.708;50.190;2024-03-23T09:31:05;98542.56;;;6.26;36.03
54122;BME280;40029;58.708;50.190;2024-03-23T09:33:36;98538.44;;;6.00;35.49
54122;BME280;40029;58.708;50.190;2024-03-23T09:36:09;98530.53;;;6.41;35.08
54122;BME280;40029;58.708;50.190;2024-03-23T09:38:41;98532.97;;;6.25;34.36
54122;BME280;40029;58.708;50.190;2024-03-23T09:41:13;98531.88;;;6.31;34.04
54122;BME280;40029;58.708;50.190;2024-03-23T09:44:05;98532.91;;;6.27;34.52
54122;BME280;40029;58.708;50.190;2024-03-23T09:46:36;98520.06;;;6.21;34.04
54122;BME280;40029;58.708;50.190;2024-03-23T09:49:09;98511.78;;;5.89;34.71
54122;BME280;40029;58.708;50.190;2024-03-23T09:51:41;98504.84;;;5.67;34.82
54122;BME280;40029;58.708;50.190;2024-03-23T09:54:12;98508.59;;;5.39;35.00
54122;BME280;40029;58.708;50.190;2024-03-23T09:56:43;98501.94;;;5.53;35.53
54122;BME280;40029;58.708;50.190;2024-03-23T09:59:14;98496.16;;;5.86;34.18
54122;BME280;40029;58.708;50.190;2024-03-23T10:01:45;98492.91;;;6.01;34.86
54122;BME280;40029;58.708;50.190;2024-03-23T10:04:42;98486.16;;;5.95;34.57
54122;BME280;40029;58.708;50.190;2024-03-23T10:07:21;98486.47;;;5.67;34.42
54122;BME280;40029;58.708;50.190;2024-03-23T10:09:55;98491.72;;;5.88;34.91
54122;BME280;40029;58.708;50.190;2024-03-23T10:12:27;98493.81;;;5.59;35.13
54122;BME280;40029;58.708;50.190;2024-03-23T10:14:58;98488.31;;;5.86;35.02
54122;BME280;40029;58.708;50.190;2024-03-23T10:17:29;98479.06;;;5.77;34.81
54122;BME280;40029;58.708;50.190;2024-03-23T10:20:01;98480.97;;;5.94;34.77
54122;BME280;40029;58.708;50.190;2024-03-23T10:22:51;98475.13;;;5.67;35.25
54122;BME280;40029;58.708;50.190;2024-03-23T10:25:23;98483.44;;;5.76;36.01
54122;BME280;40029;58.708;50.190;2024-03-23T10:28:01;98474.69;;;5.77;35.69
54122;BME280;40029;58.708;50.190;2024-03-23T10:30:32;98471.78;;;6.04;35.40
54122;BME280;40029;58.708;50.190;2024-03-23T10:33:12;98470.47;;;6.14;35.24
54122;BME280;40029;58.708;50.190;2024-03-23T10:35:46;98473.09;;;5.94;35.87
54122;BME280;40029;58.708;50.190;2024-03-23T10:38:18;98472.16;;;5.95;36.43
54122;BME280;40029;58.708;50.190;2024-03-23T10:40:49;98471.38;;;5.93;36.47
54122;BME280;40029;58.708;50.190;2024-03-23T10:43:21;98469.28;;;6.22;36.17
54122;BME280;40029;58.708;50.190;2024-03-23T10:45:52;98472.97;;;6.36;35.80
54122;BME280;40029;58.708;50.190;2024-03-23T10:48:41;98478.84;;;6.23;36.50
54122;BME280;40029;58.708;50.190;2024-03-23T10:51:14;98478.53;;;6.29;36.22
54122;BME280;40029;58.708;50.190;2024-03-23T10:54:04;98479.34;;;6.31;35.90
54122;BME280;40029;58.708;50.190;2024-03-23T10:56:39;98475.91;;;6.10;36.04
54122;BME280;40029;58.708;50.190;2024-03-23T10:59:11;98478.41;;;5.92;35.67
54122;BME280;40029;58.708;50.190;2024-03-23T11:01:59;98478.59;;;6.08;37.18
54122;BME280;40029;58.708;50.190;2024-03-23T11:09:55;98477.09;;;6.03;38.46
54122;BME280;40029;58.708;50.190;2024-03-23T11:12:31;98464.44;;;6.12;38.35
54122;BME280;40029;58.708;50.190;2024-03-23T11:15:21;98470.72;;;5.88;38.75
54122;BME280;40029;58.708;50.190;2024-03-23T11:18:07;98461.31;;;5.63;39.28
54122;BME280;40029;58.708;50.190;2024-03-23T11:20:42;98456.94;;;5.83;39.35
54122;BME280;40029;58.708;50.190;2024-03-23T11:23:29;98450.78;;;5.84;39.80
54122;BME280;40029;58.708;50.190;2024-03-23T11:26:18;98442.28;;;5.58;41.83
54122;BME280;40029;58.708;50.190;2024-03-23T11:28:49;98445.69;;;5.60;41.41
54122;BME280;40029;58.708;50.190;2024-03-23T11:31:21;98445.56;;;5.63;41.03
54122;BME280;40029;58.708;50.190;2024-03-23T11:34:03;98449.63;;;5.50;42.06
54122;BME280;40029;58.708;50.190;2024-03-23T11:36:35;98454.50;;;5.59;42.47
54122;BME280;40029;58.708;50.190;2024-03-23T11:39:19;98452.75;;;5.78;42.72
54122;BME280;40029;58.708;50.190;2024-03-23T11:41:56;98447.81;;;5.52;44.89
54122;BME280;40029;58.708;50.190;2024-03-23T11:44:27;98434.53;;;5.55;45.18
54122;BME280;40029;58.708;50.190;2024-03-23T11:47:08;98437.97;;;5.77;44.76
54122;BME280;40029;58.708;50.190;2024-03-23T11:49:41;98423.81;;;5.61;46.26
54122;BME280;40029;58.708;50.190;2024-03-23T11:52:12;98431.00;;;5.76;46.08
54122;BME280;40029;58.708;50.190;2024-03-23T11:54:43;98435.19;;;5.39;47.51
54122;BME280;40029;58.708;50.190;2024-03-23T11:57:15;98428.72;;;5.48;48.18
54122;BME280;40029;58.708;50.190;2024-03-23T11:59:46;98428.84;;;5.25;48.17
54122;BME280;40029;58.708;50.190;2024-03-23T12:02:18;98423.81;;;5.40;48.14
54122;BME280;40029;58.708;50.190;2024-03-23T12:04:49;98412.13;;;5.27;47.72
54122;BME280;40029;58.708;50.190;2024-03-23T12:07:21;98407.81;;;5.47;47.62
54122;BME280;40029;58.708;50.190;2024-03-23T12:10:06;98403.84;;;5.16;49.08
54122;BME280;40029;58.708;50.190;2024-03-23T12:13:01;98395.22;;;5.14;49.55
54122;BME280;40029;58.708;50.190;2024-03-23T12:15:33;98390.03;;;5.12;48.89
54122;BME280;40029;58.708;50.190;2024-03-23T12:18:08;98391.81;;;5.12;49.09
54122;BME280;40029;58.708;50.190;2024-03-23T12:20:40;98385.00;;;5.28;48.64
54122;BME280;40029;58.708;50.190;2024-03-23T12:23:12;98381.53;;;5.28;48.72
54122;BME280;40029;58.708;50.190;2024-03-23T12:25:48;98376.69;;;5.18;49.77
54122;BME280;40029;58.708;50.190;2024-03-23T12:28:38;98375.03;;;4.95;49.81
54122;BME280;40029;58.708;50.190;2024-03-23T12:31:10;98372.84;;;4.84;50.86
54122;BME280;40029;58.708;50.190;2024-03-23T12:33:42;98362.31;;;4.86;50.46
54122;BME280;40029;58.708;50.190;2024-03-23T12:36:13;98359.34;;;4.51;51.52
54122;BME280;40029;58.708;50.190;2024-03-23T12:38:44;98357.56;;;4.30;52.72
54122;BME280;40029;58.708;50.190;2024-03-23T12:41:15;98343.28;;;4.16;53.01
54122;BME280;40029;58.708;50.190;2024-03-23T12:43:46;98343.44;;;4.35;52.98
54122;BME280;40029;58.708;50.190;2024-03-23T12:46:17;98333.81;;;4.36;52.95
54122;BME280;40029;58.708;50.190;2024-03-23T12:48:48;98332.81;;;4.16;53.65
54122;BME280;40029;58.708;50.190;2024-03-23T12:51:20;98339.16;;;4.33;52.51
54122;BME280;40029;58.708;50.190;2024-03-23T12:53:51;98325.59;;;4.23;53.29
54122;BME280;40029;58.708;50.190;2024-03-23T12:56:22;98330.25;;;4.15;53.86
54122;BME280;40029;58.708;50.190;2024-03-23T12:58:54;98336.28;;;4.39;52.45
54122;BME280;40029;58.708;50.190;2024-03-23T13:01:26;98322.66;;;4.31;54.94
54122;BME280;40029;58.708;50.190;2024-03-23T13:04:16;98320.94;;;4.07;56.85
54122;BME280;40029;58.708;50.190;2024-03-23T13:06:47;98316.25;;;3.94;57.99
54122;BME280;40029;58.708;50.190;2024-03-23T13:09:18;98320.25;;;3.80;58.36
54122;BME280;40029;58.708;50.190;2024-03-23T13:11:50;98313.75;;;3.67;59.26
54122;BME280;40029;58.708;50.190;2024-03-23T13:14:21;98321.88;;;3.59;59.97
54122;BME280;40029;58.708;50.190;2024-03-23T13:16:53;98315.91;;;3.56;61.85
54122;BME280;40029;58.708;50.190;2024-03-23T13:19:24;98311.38;;;3.37;62.62
54122;BME280;40029;58.708;50.190;2024-03-23T13:22:01;98312.34;;;3.35;62.84
54122;BME280;40029;58.708;50.190;2024-03-23T13:24:32;98306.38;;;3.31;62.73
54122;BME280;40029;58.708;50.190;2024-03-23T13:27:04;98305.31;;;3.12;64.29
54122;BME280;40029;58.708;50.190;2024-03-23T13:29:39;98298.13;;;3.18;64.23
54122;BME280;40029;58.708;50.190;2024-03-23T13:32:10;98292.84;;;3.20;63.60
54122;BME280;40029;58.708;50.190;2024-03-23T13:35:00;98301.72;;;3.16;64.69
54122;BME280;40029;58.708;50.190;2024-03-23T13:37:31;98300.41;;;3.02;66.63
54122;BME280;40029;58.708;50.190;2024-03-23T13:40:02;98294.25;;;2.80;68.04
54122;BME280;40029;58.708;50.190;2024-03-23T13:42:34;98294.88;;;2.61;70.81
54122;BME280;40029;58.708;50.190;2024-03-23T13:45:05;98283.47;;;2.37;72.55
54122;BME280;40029;58.708;50.190;2024-03-23T13:47:37;98279.91;;;2.40;72.53
54122;BME280;40029;58.708;50.190;2024-03-23T13:50:27;98276.63;;;2.35;73.48
54122;BME280;40029;58.708;50.190;2024-03-23T13:53:16;98263.22;;;2.45;72.43
54122;BME280;40029;58.708;50.190;2024-03-23T13:55:47;98262.06;;;2.27;74.39
54122;BME280;40029;58.708;50.190;2024-03-23T13:58:37;98260.47;;;2.23;74.46
54122;BME280;40029;58.708;50.190;2024-03-23T14:01:10;98257.97;;;2.20;75.66
54122;BME280;40029;58.708;50.190;2024-03-23T14:03:42;98248.28;;;2.24;75.11
54122;BME280;40029;58.708;50.190;2024-03-23T14:06:14;98245.75;;;2.21;75.43
54122;BME280;40029;58.708;50.190;2024-03-23T14:08:45;98248.53;;;2.16;76.12
54122;BME280;40029;58.708;50.190;2024-03-23T14:11:35;98237.31;;;2.14;76.04
54122;BME280;40029;58.708;50.190;2024-03-23T14:14:08;98225.09;;;2.15;76.08
54122;BME280;40029;58.708;50.190;2024-03-23T14:16:39;98223.38;;;2.13;75.60
54122;BME280;40029;58.708;50.190;2024-03-23T14:19:10;98222.63;;;2.10;75.85
54122;BME280;40029;58.708;50.190;2024-03-23T14:21:41;98222.81;;;2.05;76.05
54122;BME280;40029;58.708;50.190;2024-03-23T14:24:12;98213.22;;;2.06;76.47
54122;BME280;40029;58.708;50.190;2024-03-23T14:26:43;98208.72;;;2.11;75.79
54122;BME280;40029;58.708;50.190;2024-03-23T14:29:14;98193.00;;;2.12;76.45
54122;BME280;40029;58.708;50.190;2024-03-23T14:31:46;98197.16;;;2.18;76.32
54122;BME280;40029;58.708;50.190;2024-03-23T14:34:17;98189.44;;;2.15;75.87
54122;BME280;40029;58.708;50.190;2024-03-23T14:36:48;98181.84;;;2.09;75.87